sensor_id;sensor_type;location;lat;lon;timestamp;P1;durP1;ratioP1;P2;durP2;ratioP2
8359;SDS011;4217;48.762;11.428;2022-12-13T00:09:06;31.60;;;24.70;;
8359;SDS011;4217;48.762;11.428;2022-12-13T00:19:07;36.00;;;25.80;;
8359;SDS011;4217;48.762;11.428;2022-12-13T00:29:09;37.63;;;28.30;;
8359;SDS011;4217;48.762;11.428;2022-12-13T00:39:11;37.80;;;28.47;;
8359;SDS011;4217;48.762;11.428;2022-12-13T00:49:14;30.47;;;25.03;;
8359;SDS011;4217;48.762;11.428;2022-12-13T00:59:15;33.00;;;24.70;;
8359;SDS011;4217;48.762;11.428;2022-12-13T01:09:18;44.93;;;27.97;;
8359;SDS011;4217;48.762;11.428;2022-12-13T01:19:22;45.57;;;30.97;;
8359;SDS011;4217;48.762;11.428;2022-12-13T01:29:25;43.07;;;31.93;;
8359;SDS011;4217;48.762;11.428;2022-12-13T01:39:27;40.13;;;32.43;;
8359;SDS011;4217;48.762;11.428;2022-12-13T01:49:30;39.50;;;32.87;;
8359;SDS011;4217;48.762;11.428;2022-12-13T01:59:32;57.13;;;34.77;;
8359;SDS011;4217;48.762;11.428;2022-12-13T02:09:37;54.17;;;33.30;;
8359;SDS011;4217;48.762;11.428;2022-12-13T02:40:26;53.60;;;32.53;;
8359;SDS011;4217;48.762;11.428;2022-12-13T02:50:32;55.13;;;33.80;;
8359;SDS011;4217;48.762;11.428;2022-12-13T03:00:44;45.97;;;34.40;;
8359;SDS011;4217;48.762;11.428;2022-12-13T03:10:57;37.67;;;30.47;;
8359;SDS011;4217;48.762;11.428;2022-12-13T03:21:13;36.87;;;29.13;;
8359;SDS011;4217;48.762;11.428;2022-12-13T03:31:15;38.73;;;31.33;;
8359;SDS011;4217;48.762;11.428;2022-12-13T03:41:18;33.47;;;29.83;;
8359;SDS011;4217;48.762;11.428;2022-12-13T03:51:24;36.77;;;29.67;;
8359;SDS011;4217;48.762;11.428;2022-12-13T04:01:26;42.10;;;31.90;;
8359;SDS011;4217;48.762;11.428;2022-12-13T04:11:28;33.57;;;28.73;;
8359;SDS011;4217;48.762;11.428;2022-12-13T04:21:48;39.50;;;31.07;;
8359;SDS011;4217;48.762;11.428;2022-12-13T04:31:50;32.37;;;28.97;;
8359;SDS011;4217;48.762;11.428;2022-12-13T04:41:51;29.63;;;26.43;;
8359;SDS011;4217;48.762;11.428;2022-12-13T04:51:53;30.23;;;25.60;;
8359;SDS011;4217;48.762;11.428;2022-12-13T05:02:01;29.83;;;25.93;;
8359;SDS011;4217;48.762;11.428;2022-12-13T05:12:05;35.90;;;28.47;;
8359;SDS011;4217;48.762;11.428;2022-12-13T05:22:23;35.10;;;31.10;;
8359;SDS011;4217;48.762;11.428;2022-12-13T05:32:25;36.73;;;32.47;;
8359;SDS011;4217;48.762;11.428;2022-12-13T05:42:27;36.87;;;29.40;;
8359;SDS011;4217;48.762;11.428;2022-12-13T05:52:28;34.67;;;29.87;;
8359;SDS011;4217;48.762;11.428;2022-12-13T06:02:31;30.93;;;26.77;;
8359;SDS011;4217;48.762;11.428;2022-12-13T06:12:37;32.80;;;28.27;;
8359;SDS011;4217;48.762;11.428;2022-12-13T06:22:43;32.43;;;26.50;;
8359;SDS011;4217;48.762;11.428;2022-12-13T06:32:47;30.63;;;27.00;;
8359;SDS011;4217;48.762;11.428;2022-12-13T06:42:50;31.83;;;28.30;;
8359;SDS011;4217;48.762;11.428;2022-12-13T06:52:52;32.00;;;26.87;;
8359;SDS011;4217;48.762;11.428;2022-12-13T07:02:54;29.57;;;26.37;;
8359;SDS011;4217;48.762;11.428;2022-12-13T07:12:57;28.60;;;24.63;;
8359;SDS011;4217;48.762;11.428;2022-12-13T07:22:58;28.27;;;25.33;;
8359;SDS011;4217;48.762;11.428;2022-12-13T07:33:00;30.13;;;25.13;;
8359;SDS011;4217;48.762;11.428;2022-12-13T07:43:03;30.33;;;25.53;;
8359;SDS011;4217;48.762;11.428;2022-12-13T07:53:06;26.90;;;23.87;;
8359;SDS011;4217;48.762;11.428;2022-12-13T08:03:08;24.07;;;20.47;;
8359;SDS011;4217;48.762;11.428;2022-12-13T08:13:26;24.03;;;21.57;;
8359;SDS011;4217;48.762;11.428;2022-12-13T08:23:28;23.47;;;21.07;;
8359;SDS011;4217;48.762;11.428;2022-12-13T08:33:32;24.40;;;21.80;;
8359;SDS011;4217;48.762;11.428;2022-12-13T08:43:36;23.27;;;20.83;;
8359;SDS011;4217;48.762;11.428;2022-12-13T08:53:38;22.23;;;20.20;;
8359;SDS011;4217;48.762;11.428;2022-12-13T09:03:41;21.40;;;19.10;;
8359;SDS011;4217;48.762;11.428;2022-12-13T09:13:42;17.70;;;16.00;;
8359;SDS011;4217;48.762;11.428;2022-12-13T09:23:45;19.50;;;18.10;;
8359;SDS011;4217;48.762;11.428;2022-12-13T09:33:46;18.03;;;16.73;;
8359;SDS011;4217;48.762;11.428;2022-12-13T09:43:51;18.00;;;16.80;;
8359;SDS011;4217;48.762;11.428;2022-12-13T09:54:01;18.67;;;17.40;;
8359;SDS011;4217;48.762;11.428;2022-12-13T10:04:06;18.37;;;17.27;;
8359;SDS011;4217;48.762;11.428;2022-12-13T10:14:14;19.00;;;17.70;;
8359;SDS011;4217;48.762;11.428;2022-12-13T10:34:36;20.27;;;19.07;;
8359;SDS011;4217;48.762;11.428;2022-12-13T10:44:39;19.80;;;18.60;;
8359;SDS011;4217;48.762;11.428;2022-12-13T10:54:42;20.10;;;18.90;;
8359;SDS011;4217;48.762;11.428;2022-12-13T11:04:48;18.30;;;17.30;;
8359;SDS011;4217;48.762;11.428;2022-12-13T11:24:59;20.03;;;18.83;;
8359;SDS011;4217;48.762;11.428;2022-12-13T11:45:29;19.57;;;18.17;;
8359;SDS011;4217;48.762;11.428;2022-12-13T11:55:40;18.07;;;16.87;;
8359;SDS011;4217;48.762;11.428;2022-12-13T12:05:52;18.03;;;16.63;;
8359;SDS011;4217;48.762;11.428;2022-12-13T12:16:05;17.93;;;16.70;;
8359;SDS011;4217;48.762;11.428;2022-12-13T12:26:15;18.30;;;17.00;;
8359;SDS011;4217;48.762;11.428;2022-12-13T12:46:45;16.97;;;15.77;;
8359;SDS011;4217;48.762;11.428;2022-12-13T13:07:53;17.17;;;15.87;;
8359;SDS011;4217;48.762;11.428;2022-12-13T13:17:59;17.73;;;16.43;;
8359;SDS011;4217;48.762;11.428;2022-12-13T13:28:05;16.37;;;15.13;;
8359;SDS011;4217;48.762;11.428;2022-12-13T14:08:58;15.87;;;14.77;;
8359;SDS011;4217;48.762;11.428;2022-12-13T14:29:17;15.40;;;14.30;;
8359;SDS011;4217;48.762;11.428;2022-12-13T14:39:27;14.60;;;13.60;;
8359;SDS011;4217;48.762;11.428;2022-12-13T14:49:35;17.27;;;15.80;;
8359;SDS011;4217;48.762;11.428;2022-12-13T14:59:43;15.37;;;14.37;;
8359;SDS011;4217;48.762;11.428;2022-12-13T15:09:55;15.17;;;13.93;;
8359;SDS011;4217;48.762;11.428;2022-12-13T15:19:59;14.50;;;13.50;;
8359;SDS011;4217;48.762;11.428;2022-12-13T15:30:11;15.00;;;13.87;;
8359;SDS011;4217;48.762;11.428;2022-12-13T15:40:14;15.47;;;14.30;;
8359;SDS011;4217;48.762;11.428;2022-12-13T15:50:38;14.57;;;13.53;;
8359;SDS011;4217;48.762;11.428;2022-12-13T16:00:47;15.40;;;14.30;;
8359;SDS011;4217;48.762;11.428;2022-12-13T16:10:50;16.00;;;14.67;;
8359;SDS011;4217;48.762;11.428;2022-12-13T16:20:53;14.90;;;13.80;;
8359;SDS011;4217;48.762;11.428;2022-12-13T16:30:57;13.80;;;12.80;;
8359;SDS011;4217;48.762;11.428;2022-12-13T16:41:04;15.67;;;14.43;;
8359;SDS011;4217;48.762;11.428;2022-12-13T16:51:09;17.83;;;16.30;;
8359;SDS011;4217;48.762;11.428;2022-12-13T17:01:12;14.73;;;13.53;;
8359;SDS011;4217;48.762;11.428;2022-12-13T17:11:15;14.43;;;13.23;;
8359;SDS011;4217;48.762;11.428;2022-12-13T17:21:18;14.07;;;13.07;;
8359;SDS011;4217;48.762;11.428;2022-12-13T17:31:20;14.53;;;13.27;;
8359;SDS011;4217;48.762;11.428;2022-12-13T17:41:22;14.73;;;13.43;;
8359;SDS011;4217;48.762;11.428;2022-12-13T17:51:24;14.73;;;13.47;;
8359;SDS011;4217;48.762;11.428;2022-12-13T18:01:25;15.57;;;14.47;;
8359;SDS011;4217;48.762;11.428;2022-12-13T18:11:27;16.53;;;15.30;;
8359;SDS011;4217;48.762;11.428;2022-12-13T18:21:34;17.67;;;16.17;;
8359;SDS011;4217;48.762;11.428;2022-12-13T18:31:38;16.83;;;15.53;;
8359;SDS011;4217;48.762;11.428;2022-12-13T18:41:40;16.47;;;15.27;;
8359;SDS011;4217;48.762;11.428;2022-12-13T18:51:41;17.90;;;16.50;;
8359;SDS011;4217;48.762;11.428;2022-12-13T19:01:43;18.27;;;16.67;;
8359;SDS011;4217;48.762;11.428;2022-12-13T19:11:44;16.97;;;15.77;;
8359;SDS011;4217;48.762;11.428;2022-12-13T19:21:46;16.07;;;14.93;;
8359;SDS011;4217;48.762;11.428;2022-12-13T19:31:48;17.07;;;15.77;;
8359;SDS011;4217;48.762;11.428;2022-12-13T19:41:50;18.47;;;16.77;;
8359;SDS011;4217;48.762;11.428;2022-12-13T19:51:51;18.23;;;16.83;;
8359;SDS011;4217;48.762;11.428;2022-12-13T20:01:53;18.40;;;17.00;;
8359;SDS011;4217;48.762;11.428;2022-12-13T20:11:55;17.90;;;16.50;;
8359;SDS011;4217;48.762;11.428;2022-12-13T20:21:58;20.10;;;18.63;;
8359;SDS011;4217;48.762;11.428;2022-12-13T20:31:59;18.53;;;17.10;;
8359;SDS011;4217;48.762;11.428;2022-12-13T20:42:02;20.47;;;19.03;;
8359;SDS011;4217;48.762;11.428;2022-12-13T20:52:05;17.70;;;16.40;;
8359;SDS011;4217;48.762;11.428;2022-12-13T21:02:08;15.97;;;14.77;;
8359;SDS011;4217;48.762;11.428;2022-12-13T21:12:10;17.80;;;16.57;;
8359;SDS011;4217;48.762;11.428;2022-12-13T21:22:12;19.07;;;17.53;;
8359;SDS011;4217;48.762;11.428;2022-12-13T21:32:13;17.43;;;16.13;;
8359;SDS011;4217;48.762;11.428;2022-12-13T21:42:15;19.13;;;17.73;;
8359;SDS011;4217;48.762;11.428;2022-12-13T21:52:16;18.80;;;17.30;;
8359;SDS011;4217;48.762;11.428;2022-12-13T22:02:18;18.30;;;17.00;;
8359;SDS011;4217;48.762;11.428;2022-12-13T22:22:26;18.50;;;17.10;;
8359;SDS011;4217;48.762;11.428;2022-12-13T22:32:29;19.03;;;17.63;;
8359;SDS011;4217;48.762;11.428;2022-12-13T22:42:31;19.60;;;18.27;;
8359;SDS011;4217;48.762;11.428;2022-12-13T22:52:32;19.63;;;18.03;;
8359;SDS011;4217;48.762;11.428;2022-12-13T23:02:35;19.80;;;18.30;;
8359;SDS011;4217;48.762;11.428;2022-12-13T23:12:37;18.10;;;16.47;;
8359;SDS011;4217;48.762;11.428;2022-12-13T23:22:57;20.47;;;18.87;;
8359;SDS011;4217;48.762;11.428;2022-12-13T23:33:00;18.53;;;17.13;;
8359;SDS011;4217;48.762;11.428;2022-12-13T23:43:02;18.73;;;17.40;;
8359;SDS011;4217;48.762;11.428;2022-12-13T23:53:04;18.23;;;16.83;;
